Terminal Aerodrome Forecast
Issued by NWS Charleston, WV

Current Version | Previous Version | Graphics & Text | Print | Product List | Glossary On
Versions: 1 2 3 4 5 6 7 8 9 10 11 12 13 14 15 16 17 18 19 20 21 22 23 24
000
FTUS41 KRLX 262330
TAFCRW
TAF
KCRW 262330Z 2700/2724 19006KT P6SM VCTS SCT030CB BKN080
      TEMPO 2702/2703 24015G25KT 1SM +TSRA BR BKN020CB
     FM270300 19005KT 4SM SHRA BR VCTS SCT025CB BKN070
      TEMPO 2703/2706 1SM BR SCT001
     FM270700 VRB03KT 3SM BR SCT001 BKN025
     FM271400 22006KT 6SM BR BKN020
     FM271600 23007KT P6SM BKN035=

USA.gov is the U.S. government's official web portal to all federal, state and local government web resources and services.